Tiempo atmosférico en la estación meteorológica de Écija, Sevilla (130 m.)



Fecha
DESCASC
Temp. máxima en grados centígrados (hora)
DESCASC
Temp. mínima en grados centígrados (hora)
DESCASC
Temp. media en grados centígrados
DESCASC
Racha de viento máxima en m/sg (hora)
DESCASC
Velocidad máxima media en intervalos de 10 minutos(hora)
DESCASC
Precipitaciones diarias en mm
DESCASC
Precipitaciones de 00:00 a 06:00 en mm
DESCASC
Precipitaciones de 06:00 a 12:00 en mm
DESCASC
Precipitaciones de 12:00 a 18:00 en mm
DESCASC
Precipitaciones de 18:00 a 24:00 en mm
DESCASC
10-11-2019 18.3 (15:20) 9.8 (00:00) 14 13.89 (17:10) 10 (17:10) 0 0 0 0 0
09-11-2019 17.3 (15:50) 1.2 (00:00) 9.2 10 (23:20) 6.39 (22:50) 0 0 0 0 0
08-11-2019 17.3 (15:00) 7.1 (08:00) 12.2 8.06 (12:10) 5.28 (11:30) 0 0 0 0 0
07-11-2019 19.1 (16:10) 8.5 (00:00) 13.8 8.61 (10:30) 6.11 (20:20) 5.4 0 5.3 0.1 0
06-11-2019 19.7 (16:50) 5.4 (00:00) 12.6 6.39 (16:20) 4.17 (00:10) 0 0 0 0 0
05-11-2019 20.6 (15:40) 10.4 (00:00) 15.5 10.28 (00:50) 6.39 (00:50) 0.9 0.9 0 0 0
04-11-2019 21.2 (14:40) 15.6 (00:00) 18.4 12.78 (21:10) 8.33 (21:00) 0 0 0 0 0
03-11-2019 24 (15:10) 16.7 (00:00) 20.4 14.17 (13:30) 9.72 (16:20) 0 0 0 0 0
02-11-2019 25.2 (15:00) 17.9 (00:00) 21.6 13.61 (17:20) 9.72 (18:30) 0.7 0.3 0.4 0 0
01-11-2019 27 (16:00) 18.4 (00:00) 22.7 13.06 (18:50) 9.17 (19:00) 0 0 0 0 0
31-10-2019 26.6 (15:30) 16.1 (07:50) 21.4 8.06 (21:30) 5 (21:10) 0 0 0 0 0
30-10-2019 26.6 (15:20) 11.3 (00:00) 19 10 (21:20) 5.83 (21:20) 0 0 0 0 0
29-10-2019 25.1 (15:40) 12.4 (00:00) 18.8 3.89 (21:40) 3.06 (00:10) 0 0 0 0 0
28-10-2019 24.3 (15:30) 12.6 (00:00) 18.4 6.39 (14:20) 3.61 (15:00) 0 0 0 0 0
27-10-2019 26.8 (15:40) 10.9 (00:00) 18.8 5.56 (16:20) 3.33 (22:00) 0 0 0 0 0
26-10-2019 28.9 (17:20) 9.9 (00:00) 19.4 4.44 (13:20) 2.5 (01:50) 0 0 0 0 0
25-10-2019 27.6 (16:40) 8.4 (00:00) 18 6.39 (14:40) 3.89 (13:50) 0 0 0 0 0
24-10-2019 20.3 (18:10) 9.8 (00:00) 15 6.94 (04:10) 5 (04:10) 0 0 0 0 0
23-10-2019 17.3 (15:40) 9.9 (00:00) 13.6 10.56 (14:40) 6.94 (16:10) 4.2 0 0 4 0.2
22-10-2019 21 (16:20) 9.7 (09:10) 15.3 10.83 (19:10) 7.22 (18:20) 6.9 0 0 0 6.9
21-10-2019 20.9 (18:20) 7.6 (00:00) 14.2 4.44 (16:50) 3.06 (00:10) 0 0 0 0 0
20-10-2019 19.6 (16:50) 12.5 (00:00) 16.1 10 (02:00) 7.22 (02:00) 1.7 1.7 0 0 0
19-10-2019 -- (--) -- (--) -- 17.22 (22:10) 11.11 (22:10) 9.4 0 0 0 9.4
18-10-2019 26 (15:50) 11.8 (00:00) 18.9 7.78 (23:50) 5 (23:50) 0 0 0 0 0
17-10-2019 26.4 (17:50) 7 (00:00) 16.7 8.89 (21:40) 5.56 (21:40) 0 0 0 0 0
16-10-2019 25 (17:40) 5.8 (00:00) 15.4 3.89 (21:10) 3.33 (21:10) 0 0 0 0 0
15-10-2019 21.8 (17:10) 8 (00:00) 14.9 5 (01:00) 4.17 (01:00) 0 0 0 0 0
14-10-2019 -- (--) -- (--) -- -- (--) -- (--) 1.9 0 0.9 0.2 0.8

Gráficas

Temp. máximas Temp. mínimas Temp. medias Precipitaciones Rachas de viento máximas Velocidades máximas media en intervalos de 10 minutos

Datos horarios

Fecha y hora oficial Temperatura (ºC) Velocidad del viento (km/h) Dirección del viento Racha (km/h) Dirección de racha Precipitación (mm) Presión (hPa) Tendencia (hPa) Humedad (%)
2019-11-12 23:00:00 11.5 6 Oeste 14 Oeste 0 1001.7 0.5 62
2019-11-12 22:00:00 12.7 6 Oeste 17 Oeste 0 1001.5 0.7 56
2019-11-12 21:00:00 13.3 15 Noroeste 20 Oeste 0 1001.4 1.1 51
2019-11-12 20:00:00 13.6 11 Oeste 17 Noroeste 0 1001.2 0.9 48
2019-11-12 19:00:00 14.6 14 Noroeste 19 Noroeste 0 1000.8 0 45
2019-11-12 18:00:00 16.9 6 Oeste 20 Oeste 0 1000.3 -0.9 48
2019-11-12 17:00:00 18.5 12 Oeste 19 Oeste 0 1000.3 -1.7 45
2019-11-12 16:00:00 18.8 7 Sudoeste 21 Noroeste 0 1000.8 -1.4 48
2019-11-12 15:00:00 18.1 5 Noroeste 19 Noroeste 0 1001.2 -1.9 48
2019-11-12 14:00:00 16.8 4 Nordeste 15 Noroeste 0 1002 -1.2 58
2019-11-12 13:00:00 14.9 2 Norte 11 Nordeste 0 1002.2 -0.9 70
2019-11-12 12:00:00 12.7 3 Norte 12 Norte 0 1003.1 0.6 80
2019-11-12 11:00:00 11.7 6 Norte 14 Norte 0 1003.2 1.3 83
2019-11-12 10:00:00 10.9 6 Norte 11 Noroeste 0 1003.1 1.8 90
2019-11-12 09:00:00 9.9 4 Norte 8 Noroeste 0 1002.5 1.1 94
2019-11-12 08:00:00 8.1 2 Oeste 5 Sudoeste 0 1001.9 0.5 97
2019-11-12 07:00:00 8.5 0 Calma 9 Noroeste 0 1001.3 -0.6 96
2019-11-12 06:00:00 8.8 8 Noroeste 10 Noroeste 0 1001.4 -0.6 94
2019-11-12 05:00:00 9.9 4 Noroeste 6 Noroeste 0 1001.4 -0.5 94
2019-11-12 04:00:00 9 0 Calma 11 Noroeste 0 1001.9 -0.5 93
2019-11-12 03:00:00 9.1 4 Oeste 9 Noroeste 0 1002 -0.3 93
2019-11-12 02:00:00 9.4 0 Calma 8 Sudoeste 0 1001.9 -0.9 92
2019-11-12 01:00:00 10.8 0 Calma 4 Sur 0 1002.4 -0.2 92
2019-11-12 00:00:00 10.4 0 Calma 6 Sudeste 0 1002.3 0.1 92
2019-11-11 23:00:00 11.1 0 Calma 5 Sudeste 0 1002.8 0.4 90
2019-11-11 22:00:00 11.5 0 Calma 6 Sudeste 0 1002.6 0.6 85
2019-11-11 21:00:00 13.1 4 Sudeste 6 Sudeste 0 1002.2 0.4 80
2019-11-11 20:00:00 13.6 0 Calma 4 Este 0 1002.4 0.6 80
2019-11-11 19:00:00 15 0 Calma 7 Noroeste 0 1002 0.2 77
2019-11-11 18:00:00 16 5 Noroeste 13 Oeste 0 1001.8 -0.7 74
2019-11-11 17:00:00 16 5 Oeste 14 Oeste 0 1001.8 -1.2 72
2019-11-11 16:00:00 15.7 8 Oeste 17 Sudoeste 0 1001.8 -2.1 72
2019-11-11 15:00:00 15.3 6 Oeste 17 Oeste 0 1002.5 -1.7 71
2019-11-11 14:00:00 14.9 7 Oeste 18 Oeste 0 1003 -1.7 71
2019-11-11 13:00:00 15.1 5 Oeste 17 Noroeste 0 1003.9 -1 69
2019-11-11 12:00:00 14.7 6 Sudoeste 14 Oeste 0 1004.2 -1.1 67
2019-11-11 11:00:00 13.7 10 Sudoeste 16 Oeste 0 1004.7 -0.2 71
2019-11-11 10:00:00 12.7 9 Oeste 16 Oeste 0 1004.9 0.3 78
2019-11-11 09:00:00 11.6 8 Oeste 13 Oeste 0 1005.3 0.7 81
2019-11-11 08:00:00 11 9 Oeste 12 Oeste 0 1004.9 0.1 81
2019-11-11 07:00:00 11.4 10 Oeste 13 Oeste 0 1004.6 -0.3 79
2019-11-11 06:00:00 11.8 12 Oeste 17 Noroeste 0 1004.6 -- 76
2019-11-11 05:00:00 12 6 Noroeste 17 Noroeste 0 1004.8 -- 73
2019-11-11 04:00:00 11.9 12 Noroeste -- -- -- 1004.9 -0.9 76
2019-11-11 03:00:00 -- -- -- -- -- -- -- -- --
2019-11-11 02:00:00 -- -- -- -- -- -- -- -- --
2019-11-11 01:00:00 12.8 14 Noroeste 22 Noroeste 0 1005.8 0.1 62
2019-11-11 00:00:00 12.8 16 Noroeste 21 Noroeste 0 1006.4 0.3 62
2019-11-10 23:00:00 12.8 14 Noroeste 20 Noroeste 0 1005.8 -0.2 61
2019-11-10 22:00:00 12.7 12 Noroeste 18 Noroeste 0 1005.7 0.1 61
2019-11-10 21:00:00 13 11 Noroeste 17 Noroeste 0 1006.1 0.4 58
2019-11-10 20:00:00 13.3 13 Noroeste 23 Noroeste 0 1006 0.9 53
2019-11-10 19:00:00 13.5 16 Noroeste 35 Noroeste 0 1005.6 1 50
2019-11-10 18:00:00 13.7 29 Noroeste 50 Noroeste 0 1005.7 1.5 49
2019-11-10 17:00:00 16 31 Noroeste 48 Noroeste 0 1005.1 0.2 40
2019-11-10 16:00:00 16.8 27 Noroeste 39 Noroeste 0 1004.6 -0.8 35
2019-11-10 15:00:00 17.3 22 Noroeste 37 Noroeste 0 1004.2 -1.9 34
2019-11-10 14:00:00 17.3 23 Noroeste 41 Noroeste 0 1004.9 -1.8 36
2019-11-10 13:00:00 16.7 22 Noroeste 35 Noroeste 0 1005.4 -1.4 39
2019-11-10 12:00:00 15.7 22 Noroeste 41 Noroeste 0 1006.1 -0.5 46
2019-11-10 11:00:00 13.5 19 Noroeste 25 Noroeste 0 1006.7 1.3 59
2019-11-10 10:00:00 11.7 12 Noroeste 23 Oeste 0 1006.8 1.7 72
2019-11-10 09:00:00 9.8 7 Noroeste 18 Oeste 0 1006.6 1.6 81
2019-11-10 08:00:00 10.2 12 Oeste 21 Oeste 0 1005.4 0.7 78
2019-11-10 07:00:00 11.4 13 Oeste 19 Oeste 0 1005.1 0.5 71
2019-11-10 06:00:00 11.8 12 Oeste 21 Noroeste 0 1005 0.1 79
2019-11-10 05:00:00 12.5 12 Oeste 21 Noroeste 0 1004.7 -0.2 85
2019-11-10 04:00:00 12.9 13 Oeste 22 Oeste 0 1004.6 -0.7 87
2019-11-10 03:00:00 13.2 11 Oeste 27 Sudoeste 0 1004.9 -1 86
2019-11-10 02:00:00 13.3 15 Sudoeste 31 Oeste 0 1004.9 -1.4 86
2019-11-10 01:00:00 13.5 17 Sudoeste 33 Sudoeste 0 1005.3 -1.4 81
2019-11-10 00:00:00 13.5 23 Sudoeste 36 Sudoeste 0 1005.9 -1.2 76
2019-11-09 23:00:00 13.5 22 Sudoeste 34 Sudoeste 0 1006.3 -1 72
2019-11-09 22:00:00 13.5 19 Sudoeste 33 Sudoeste 0 1006.7 -0.4 66
2019-11-09 21:00:00 13.5 21 Sudoeste 28 Sudoeste 0 1007.1 0.1 54
2019-11-09 20:00:00 13.5 19 Sudoeste 26 Sudoeste 0 1007.3 0 48
2019-11-09 19:00:00 14.6 17 Sudoeste 22 Sudoeste 0 1007.1 -0.2 46
2019-11-09 18:00:00 15.8 8 Sudoeste 17 Oeste 0 1007 -1.2 45
2019-11-09 17:00:00 17 9 Oeste 21 Oeste 0 1007.3 -1.5 40
2019-11-09 16:00:00 17.3 9 Oeste 21 Oeste 0 1007.3 -2.5 39
2019-11-09 15:00:00 16.7 8 Noroeste 18 Noroeste 0 1008.2 -2.5 41
2019-11-09 14:00:00 16.1 4 Oeste 14 Oeste 0 1008.8 -2.1 44
2019-11-09 13:00:00 14.5 2 Sudoeste 9 Sur 0 1009.8 -1.1 51
2019-11-09 12:00:00 12.3 3 Sudeste 8 Nordeste 0 1010.7 -0.3 58
2019-11-09 11:00:00 9.7 3 Este 7 Este 0 1010.9 0.7 67
2019-11-09 10:00:00 5.8 0 Calma 9 Este 0 1010.9 1.1 82
2019-11-09 09:00:00 3.1 7 Sudoeste 9 Sudoeste 0 1011 2 91
2019-11-09 08:00:00 1.3 3 Sudeste 6 Sudeste 0 1010.2 1.4 93
2019-11-09 07:00:00 1.9 0 Calma 5 Norte 0 1009.8 0.5 94
2019-11-09 06:00:00 2 3 Sur 6 Sudoeste 0 1009 -0.4 92
2019-11-09 05:00:00 2 4 Sudeste 9 Sudeste 0 1008.8 -0.5 89
2019-11-09 04:00:00 3.1 4 Sur 8 Sudeste 0 1009.3 -0.3 91
2019-11-09 03:00:00 4 3 Sur 7 Sur 0 1009.4 0.5 90
2019-11-09 02:00:00 4.5 6 Sudeste 9 Sudeste 0 1009.3 0.2 81
2019-11-09 01:00:00 5.3 2 Sudeste 7 Sudeste 0 1009.6 1.1 79
2019-11-09 00:00:00 7.5 0 Calma 9 Oeste 0 1008.9 1 70
2019-11-08 23:00:00 8.9 3 Sudeste 19 Oeste 0 1009.1 1.6 61
2019-11-08 22:00:00 10 11 Oeste 18 Noroeste 0 1008.5 1.9 58
2019-11-08 21:00:00 11.3 16 Noroeste 19 Noroeste 0 1007.9 2.2 53
2019-11-08 20:00:00 11.6 14 Noroeste 17 Noroeste 0 1007.5 2.3 52
2019-11-08 19:00:00 12 11 Noroeste 13 Noroeste 0 1006.6 1.7 52
2019-11-08 18:00:00 15.3 11 Norte 17 Noroeste 0 1005.7 1 39
2019-11-08 17:00:00 16.9 6 Noroeste 19 Noroeste 0 1005.2 0.2 33
2019-11-08 16:00:00 17.3 12 Noroeste 26 Noroeste 0 1004.9 -0.7 34
2019-11-08 15:00:00 17.3 13 Noroeste 23 Norte 0 1004.7 -1.3 33
2019-11-08 14:00:00 16.3 7 Noroeste 25 Noroeste 0 1005 -1 37
2019-11-08 13:00:00 15.4 13 Noroeste 29 Noroeste 0 1005.6 0.1 46
2019-11-08 12:00:00 14.2 13 Noroeste 27 Noroeste 0 1006 1.2 54
2019-11-08 11:00:00 13.2 15 Noroeste 27 Oeste 0 1006 2.3 61
2019-11-08 10:00:00 11.7 15 Oeste 26 Oeste 0 1005.5 2.4 71
2019-11-08 09:00:00 9.4 17 Oeste 24 Oeste 0 1004.8 2 83
2019-11-08 08:00:00 7.4 15 Oeste 25 Oeste 0 1003.7 1 88
2019-11-08 07:00:00 7.9 14 Oeste 21 Oeste 0 1003.1 0.4 86
2019-11-08 06:00:00 8.8 15 Oeste 23 Oeste 0 1002.8 0.2 81
2019-11-08 05:00:00 7.8 15 Oeste 22 Oeste 0 1002.7 0.2 83
2019-11-08 04:00:00 8.6 16 Oeste 26 Oeste 0 1002.7 -0.1 79
2019-11-08 03:00:00 9.6 16 Oeste 23 Oeste 0 1002.6 -0.5 73
2019-11-08 02:00:00 9.1 17 Oeste 22 Oeste 0 1002.5 -0.5 75
2019-11-08 01:00:00 9.9 15 Oeste 22 Oeste 0 1002.8 0.3 71
2019-11-08 00:00:00 9.7 17 Oeste 20 Oeste 0 1003.1 0.9 72
2019-11-07 23:00:00 10 15 Oeste 22 Oeste 0 1003 1.4 72
2019-11-07 22:00:00 11.1 14 Oeste 19 Noroeste 0 1002.5 1.8 63
2019-11-07 21:00:00 12 14 Noroeste 28 Noroeste 0 1002.2 2.1 62
2019-11-07 20:00:00 12.7 14 Noroeste 21 Noroeste 0 1001.6 1.8 63
2019-11-07 19:00:00 13.5 14 Noroeste 19 Noroeste 0 1000.7 1.1 62
2019-11-07 18:00:00 16 9 Noroeste 19 Norte 0 1000.1 0.9 59
2019-11-07 17:00:00 18.2 15 Norte 27 Norte 0 999.8 0 47
2019-11-07 16:00:00 19 15 Noroeste 24 Norte 0 999.6 -1 46
2019-11-07 15:00:00 17.9 7 Norte 29 Noroeste 0 999.2 -1.9 72
2019-11-07 14:00:00 18.2 14 Noroeste 25 Oeste 0 999.8 -1.2 79
2019-11-07 13:00:00 15.9 15 Oeste 28 Oeste 0.1 1000.6 -0.3 92
2019-11-07 12:00:00 14.6 14 Oeste 28 Sudoeste 1.5 1001.1 0.2 96
2019-11-07 11:00:00 14.1 19 Sudoeste 31 Sudoeste 0.9 1001 0.5 94
2019-11-07 10:00:00 13.4 18 Sudoeste 25 Sudoeste 0.6 1000.9 -0.1 95
2019-11-07 09:00:00 12.7 6 Sudoeste 19 Sudoeste 0.1 1000.9 -0.1 95
2019-11-07 08:00:00 12.1 12 Sudoeste 21 Sudoeste 0.7 1000.5 -0.5 96
2019-11-07 07:00:00 12.2 11 Sudoeste 21 Oeste 1.5 1001 -0.3 93
2019-11-07 06:00:00 12.8 11 Sudoeste 18 Sudoeste 0 1001 -0.4 82
2019-11-07 05:00:00 10.1 0 Calma 8 Sudeste 0 1001 -1 81
2019-11-07 04:00:00 9.6 6 Sudeste 8 Sudeste 0 1001.3 -1.3 82
2019-11-07 03:00:00 8.8 8 Sudeste 12 Sudeste 0 1001.4 -1.1 84
2019-11-07 02:00:00 8.9 2 Sudeste 9 Sudeste 0 1002 -0.8 81
2019-11-07 01:00:00 9.4 7 Sudeste 12 Sudeste 0 1002.6 -0.3 78
2019-11-07 00:00:00 12.7 4 Oeste 17 Oeste 0 1002.5 -0.2 65
2019-11-06 23:00:00 13.4 14 Oeste 18 Oeste 0 1002.8 0.2 62
2019-11-06 22:00:00 13 5 Sudeste 16 Oeste 0 1002.9 0.7 64
2019-11-06 21:00:00 14.5 9 Oeste 17 Oeste 0 1002.7 0.9 58
2019-11-06 20:00:00 16.1 9 Oeste 20 Oeste 0 1002.6 0.8 51
2019-11-06 19:00:00 16.5 10 Oeste 22 Oeste 0 1002.2 0 48
2019-11-06 18:00:00 18.2 7 Oeste 15 Sudoeste 0 1001.8 -1.1 42
2019-11-06 17:00:00 19.3 10 Noroeste 23 Oeste 0 1001.8 -1.6 40
2019-11-06 16:00:00 19.4 9 Oeste 21 Oeste 0 1002.2 -2 41
2019-11-06 15:00:00 18.9 12 Noroeste 23 Noroeste 0 1002.9 -2.2 42
2019-11-06 14:00:00 18 4 Noroeste 22 Oeste 0 1003.4 -2.3 45
2019-11-06 13:00:00 17.2 9 Noroeste 18 Noroeste 0 1004.2 -1.1 48
2019-11-06 12:00:00 15.7 6 Oeste 18 Oeste 0 1005.1 0.1 59
2019-11-06 11:00:00 14.6 6 Noroeste 18 Noroeste 0 1005.7 1.1 63
2019-11-06 10:00:00 11.3 3 Este 8 Este 0 1005.3 1.1 77
2019-11-06 09:00:00 7.6 3 Sudeste 9 Sudeste 0 1005 1 89
2019-11-06 08:00:00 5.6 4 Sudeste 14 Oeste 0 1004.6 0.5 91
2019-11-06 07:00:00 6.3 0 Calma 6 Sudeste 0 1004.2 0.3 93
2019-11-06 06:00:00 6.6 0 Calma 7 Noroeste 0 1004 -0.1 91
2019-11-06 05:00:00 7.3 3 Sudeste 9 Este 0 1004.1 -0.2 87
2019-11-06 04:00:00 9.3 3 Sudeste 19 Oeste 0 1003.9 -0.5 81
2019-11-06 03:00:00 10.5 8 Sudoeste 15 Sudoeste 0 1004.1 0.1 78
2019-11-06 02:00:00 10.5 5 Sudeste 21 Oeste 0 1004.3 0.2 77
2019-11-06 01:00:00 11.9 13 Oeste 20 Oeste 0 1004.4 0.6 72
2019-11-06 00:00:00 12.8 15 Oeste 19 Oeste 0 1004 0.8 68
2019-11-05 23:00:00 13.1 14 Oeste 23 Oeste 0 1004.1 1.9 67
2019-11-05 22:00:00 13.7 7 Oeste 19 Oeste 0 1003.8 2.1 69
2019-11-05 21:00:00 15 12 Oeste 20 Oeste 0 1003.2 2.1 57
2019-11-05 20:00:00 16.1 15 Noroeste 21 Noroeste 0 1002.2 1.1 50
2019-11-05 19:00:00 17.4 10 Noroeste 21 Noroeste 0 1001.7 0.8 48
2019-11-05 18:00:00 19.2 15 Oeste 30 Noroeste 0 1001.1 -0.4 43
2019-11-05 17:00:00 19.6 17 Noroeste 32 Oeste 0 1001.1 -0.9 42
2019-11-05 16:00:00 20.4 18 Oeste 34 Oeste 0 1000.9 -1.7 41
2019-11-05 15:00:00 18.9 14 Oeste 31 Oeste 0 1001.5 -1.5 49
2019-11-05 14:00:00 18.2 16 Oeste 27 Oeste 0 1002 -1.3 51
2019-11-05 13:00:00 18.3 13 Oeste 28 Oeste 0 1002.6 -0.5 51
2019-11-05 12:00:00 16.6 14 Oeste 24 Oeste 0 1003 0.4 58
2019-11-05 11:00:00 16 16 Noroeste 29 Oeste 0 1003.3 1.4 64
2019-11-05 10:00:00 14.9 14 Oeste 22 Oeste 0 1003.1 1.8 70
2019-11-05 09:00:00 12.3 13 Oeste 18 Oeste 0 1002.6 2 80
2019-11-05 08:00:00 10.7 13 Oeste 18 Oeste 0 1001.9 2 84
2019-11-05 07:00:00 11 12 Oeste 18 Oeste 0 1001.3 1.8 84
2019-11-05 06:00:00 12.1 13 Oeste 22 Oeste 0 1000.6 1.3 82
2019-11-05 05:00:00 13.4 15 Oeste 29 Noroeste 0 999.9 0.9 77
2019-11-05 04:00:00 14.8 16 Oeste 28 Oeste 0 999.5 0.2 89
2019-11-05 03:00:00 15.1 18 Oeste 30 Oeste 0 999.3 0.2 90
2019-11-05 02:00:00 15.1 19 Oeste 32 Oeste 0.1 999 -0.4 92
2019-11-05 01:00:00 15.5 23 Oeste 37 Oeste 0.8 999.3 0 91
2019-11-05 00:00:00 17.1 19 Oeste 40 Oeste 0 999.1 -0.6 81
2019-11-04 23:00:00 17.2 24 Sudoeste 39 Sudoeste 0 999.4 -0.5 78
2019-11-04 22:00:00 17.8 28 Sudoeste 46 Sudoeste 0 999.3 -0.1 74
2019-11-04 21:00:00 18.4 30 Sudoeste 45 Sudoeste 0 999.7 0.3 71
2019-11-04 20:00:00 18.5 24 Sudoeste 40 Sudoeste 0 999.9 0.5 68
2019-11-04 19:00:00 19 23 Sudoeste 44 Sudoeste 0 999.4 -0.2 64
2019-11-04 18:00:00 19.9 24 Oeste 42 Oeste 0 999.4 -1.1 61
2019-11-04 17:00:00 20.6 26 Sudoeste 38 Sudoeste 0 999.4 -1.6 58
2019-11-04 16:00:00 21 19 Oeste 37 Oeste 0 999.6 -1.9 53
2019-11-04 15:00:00 20.9 19 Oeste 37 Sudoeste 0 1000.5 -2.1 52
2019-11-04 14:00:00 20.6 21 Oeste 40 Sudoeste 0 1001 -1.9 57
2019-11-04 13:00:00 20.6 22 Oeste 37 Oeste 0 1001.5 -1.5 64
2019-11-04 12:00:00 19.4 19 Oeste 31 Sudoeste 0 1002.6 -0.3 71
2019-11-04 11:00:00 18.7 14 Oeste 30 Sudoeste 0 1002.9 0.3 77
2019-11-04 10:00:00 17.6 13 Oeste 26 Oeste 0 1003 0.7 85
2019-11-04 09:00:00 16.7 13 Oeste 26 Oeste 0 1002.9 0.7 89
2019-11-04 08:00:00 16 6 Oeste 20 Oeste 0 1002.6 0.2 91
2019-11-04 07:00:00 16.2 9 Oeste 27 Sudoeste 0 1002.3 -0.5 86
2019-11-04 06:00:00 15.9 16 Sudoeste 24 Sudoeste 0 1002.2 -0.3 83
2019-11-04 05:00:00 16.6 14 Oeste 27 Sudoeste 0 1002.4 -0.9 80
2019-11-04 04:00:00 16.1 19 Sudoeste 28 Oeste 0 1002.8 -0.4 85
2019-11-04 03:00:00 16 11 Sudoeste 27 Sudoeste 0 1002.5 -0.8 83
2019-11-04 02:00:00 17.1 14 Oeste 27 Sudoeste 0 1003.3 -0.3 81
2019-11-04 01:00:00 17.3 13 Sudoeste 21 Sudoeste 0 1003.2 0.1 84
2019-11-04 00:00:00 17.2 16 Sudoeste 28 Oeste 0 1003.3 1 84
2019-11-03 23:00:00 17.9 19 Sudoeste 31 Oeste 0 1003.6 2 82
2019-11-03 22:00:00 18.4 17 Sudoeste 33 Sudoeste 0 1003.1 2.5 76
2019-11-03 21:00:00 18.9 14 Oeste 30 Sudoeste 0 1002.3 2.6 75
2019-11-03 20:00:00 19.5 20 Sudoeste 32 Sudoeste 0 1001.6 2.5 72
2019-11-03 19:00:00 20.8 17 Oeste 31 Oeste 0 1000.6 1.6 55
2019-11-03 18:00:00 22.3 21 Oeste 39 Oeste 0 999.7 1.2 52
2019-11-03 17:00:00 23.3 24 Oeste 50 Oeste 0 999.1 0.3 48
2019-11-03 16:00:00 23.8 29 Oeste 47 Oeste 0 999 -0.6 46
2019-11-03 15:00:00 23.5 31 Oeste 47 Oeste 0 998.5 -1.3 48
2019-11-03 14:00:00 23.6 25 Oeste 51 Oeste 0 998.8 -0.4 52
2019-11-03 13:00:00 21.8 27 Oeste 45 Oeste 0 999.6 0.8 59
2019-11-03 12:00:00 20.3 23 Oeste 45 Sudoeste 0 999.8 1.1 64
2019-11-03 11:00:00 20 26 Oeste 44 Oeste 0 999.2 1.3 66
2019-11-03 10:00:00 17.7 25 Oeste 42 Sudoeste 0 998.8 1.5 76
2019-11-03 09:00:00 17.4 23 Oeste 39 Sudoeste 0 998.7 1.5 77
2019-11-03 08:00:00 16.8 15 Oeste 29 Sudoeste 0 997.9 1.1 83
2019-11-03 07:00:00 17.1 14 Oeste 31 Oeste 0 997.3 0.2 84
2019-11-03 06:00:00 17.2 18 Oeste 30 Oeste 0 997.2 -0.4 85
2019-11-03 05:00:00 17.2 12 Oeste 30 Sudoeste 0 996.8 -0.6 88
2019-11-03 04:00:00 17.3 17 Oeste 31 Sudoeste 0 997.1 -0.9 89
2019-11-03 03:00:00 17.7 18 Oeste 37 Sudoeste 0 997.6 -0.6 88
2019-11-03 02:00:00 17.8 18 Oeste 32 Oeste 0 997.4 -0.6 85
2019-11-03 01:00:00 17.9 20 Sudoeste 33 Sudoeste 0 998 -0.4 86
2019-11-03 00:00:00 18.1 18 Oeste 37 Sudoeste 0 998.2 -0.3 86
2019-11-02 23:00:00 18.4 27 Sudoeste 38 Sudoeste 0 998 -0.1 86
2019-11-02 22:00:00 18.4 26 Sudoeste 38 Sudoeste 0 998.4 0.4 87
2019-11-02 21:00:00 18.7 26 Sudoeste 43 Sudoeste 0 998.5 0.6 85
2019-11-02 20:00:00 19 30 Sudoeste 45 Sudoeste 0 998.1 0.3 83
2019-11-02 19:00:00 20 30 Sudoeste 48 Sudoeste 0 998 0.1 76
2019-11-02 18:00:00 21.3 31 Sudoeste 49 Sudoeste 0 997.9 -0.7 68
2019-11-02 17:00:00 22.5 30 Sudoeste 44 Sudoeste 0 997.8 -1.8 67
2019-11-02 16:00:00 24.2 27 Sudoeste 47 Sudoeste 0 997.9 -2.6 58
2019-11-02 15:00:00 25.2 22 Oeste 44 Sudoeste 0 998.6 -2.8 54
2019-11-02 14:00:00 24.2 22 Oeste 37 Oeste 0 999.6 -2.3 60
2019-11-02 13:00:00 22.8 19 Oeste 36 Oeste 0 1000.5 -1.6 66
2019-11-02 12:00:00 21.5 20 Oeste 36 Oeste 0 1001.4 -0.9 74
2019-11-02 11:00:00 20.8 19 Oeste 36 Oeste 0 1001.9 0 81
2019-11-02 10:00:00 19.7 17 Oeste 33 Sudoeste 0 1002.1 -0.1 86
2019-11-02 09:00:00 18.4 18 Oeste 37 Oeste 0 1002.3 -0.6 92
2019-11-02 08:00:00 17.9 18 Oeste 39 Sudoeste 0 1001.9 -1.7 92
2019-11-02 07:00:00 18.1 18 Oeste 36 Oeste 0.4 1002.2 -1.7 92
2019-11-02 06:00:00 18.5 21 Sudoeste 32 Sudoeste 0.1 1002.9 -1.6 92
2019-11-02 05:00:00 18.5 13 Oeste 33 Sudoeste 0 1003.6 -1.6 91
2019-11-02 04:00:00 18.2 22 Sudoeste 33 Sudoeste 0 1003.9 -1.6 92
2019-11-02 03:00:00 18.4 22 Sudoeste 33 Sudoeste 0.2 1004.5 -1.7 92
2019-11-02 02:00:00 18.8 18 Sudoeste 37 Oeste 0 1005.2 -1.4 89
2019-11-02 01:00:00 18.6 25 Sudoeste 37 Sudoeste 0 1005.5 -1.4 88
2019-11-02 00:00:00 18.8 25 Sudoeste 41 Sudoeste 0 1006.2 -0.8 88
2019-11-01 23:00:00 18.8 21 Oeste 44 Sudoeste 0 1006.6 -0.3 88
2019-11-01 22:00:00 19.1 24 Sudoeste 43 Sudoeste 0 1006.9 0.4 87
2019-11-01 21:00:00 19.6 23 Oeste 42 Oeste 0 1007 0.6 84
2019-11-01 20:00:00 20.6 28 Sudoeste 44 Oeste 0 1006.9 0.7 81
2019-11-01 19:00:00 22 33 Sudoeste 47 Sudoeste 0 1006.5 0.1 75
2019-11-01 18:00:00 23.8 22 Oeste 40 Oeste 0 1006.4 -0.7 67
2019-11-01 17:00:00 26 19 Oeste 40 Oeste 0 1006.2 -2 58
2019-11-01 16:00:00 26.3 18 Oeste 34 Oeste 0 1006.4 -2.8 53
2019-11-01 15:00:00 26.2 18 Sudoeste 31 Sudoeste 0 1007.1 -2.8 54
2019-11-01 14:00:00 25.2 12 Oeste 25 Sudoeste 0 1008.2 -2.1 56
2019-11-01 13:00:00 24.2 9 Oeste 24 Oeste 0 1009.2 -1.3 61
2019-11-01 12:00:00 23.9 13 Sudoeste 23 Oeste 0 1009.9 0 65
2019-11-01 11:00:00 21.7 12 Oeste 18 Oeste 0 1010.3 0.6 74
2019-11-01 10:00:00 20.6 8 Oeste 14 Oeste 0 1010.5 0.7 77
2019-11-01 09:00:00 19.8 4 Oeste 17 Oeste 0 1009.9 0.2 80
2019-11-01 08:00:00 19.1 6 Oeste 13 Sudoeste 0 1009.7 0.2 82
2019-11-01 07:00:00 18.9 10 Oeste 14 Oeste 0 1009.8 0.1 83
2019-11-01 06:00:00 18.6 10 Oeste 15 Oeste 0 1009.7 0 84
2019-11-01 05:00:00 18.9 13 Oeste 20 Noroeste 0 1009.5 -0.5 82
2019-11-01 04:00:00 18.8 3 Nordeste 17 Oeste 0 1009.7 -0.8 83
2019-11-01 03:00:00 19 10 Oeste 17 Oeste 0 1009.7 -0.6 85
2019-11-01 02:00:00 19.5 8 Oeste 14 Oeste 0 1010 -0.2 82
2019-11-01 01:00:00 20.6 6 Sudoeste 12 Oeste 0 1010.5 0.5 79
2019-11-01 00:00:00 21.3 9 Noroeste 23 Oeste 0 1010.3 0.5 77
2019-10-31 23:00:00 21.7 7 Oeste 27 Oeste 0 1010.2 0.5 76
2019-10-31 22:00:00 22.1 14 Oeste 29 Oeste 0 1010 0.8 76
2019-10-31 21:00:00 22.8 17 Sudoeste 26 Sudoeste 0 1009.8 0.8 72
2019-10-31 20:00:00 23 9 Oeste 13 Oeste 0 1009.7 0.8 65
2019-10-31 19:00:00 24.4 5 Oeste 12 Noroeste 0 1009.2 0.5 58
2019-10-31 18:00:00 25.1 6 Noroeste 19 Oeste 0 1009 -0.2 53
2019-10-31 17:00:00 25.7 11 Oeste 20 Oeste 0 1008.9 -1.1 53
2019-10-31 16:00:00 26.5 5 Oeste 22 Oeste 0 1008.7 -2 51
2019-10-31 15:00:00 26.1 10 Oeste 22 Oeste 0 1009.2 -2.3 51
2019-10-31 14:00:00 25.4 11 Noroeste 20 Oeste 0 1010 -1.5 55
2019-10-31 13:00:00 24.3 8 Sudoeste 17 Sudoeste 0 1010.7 -0.8 60
2019-10-31 12:00:00 22.8 5 Noroeste 12 Oeste 0 1011.5 0.7 67
2019-10-31 11:00:00 21.2 6 Sudoeste 12 Sudoeste 0 1011.5 1.6 78
2019-10-31 10:00:00 18.3 4 Sudeste 8 Este 0 1011.5 1.7 86
2019-10-31 09:00:00 18 0 Calma 9 Noroeste 0 1010.8 1.1 89
2019-10-31 08:00:00 16.2 0 Calma 6 Este 0 1009.9 0.4 91
2019-10-31 07:00:00 16.9 0 Calma 5 Sudeste 0 1009.8 0.5 90
2019-10-31 06:00:00 17.1 0 Calma 9 Sur 0 1009.7 0 89
2019-10-31 05:00:00 17.3 4 Sudeste 14 Sur 0 1009.5 -0.2 88
2019-10-31 04:00:00 17.6 7 Sudeste 25 Oeste 0 1009.3 -0.5 88
2019-10-31 03:00:00 18.2 12 Oeste 24 Sudoeste 0 1009.7 -0.1 88
2019-10-31 02:00:00 18.5 16 Sudoeste 24 Oeste 0 1009.7 0 86
2019-10-31 01:00:00 18.9 17 Sudoeste 23 Sudoeste 0 1009.8 0.5 83
2019-10-31 00:00:00 19.3 10 Oeste 29 Sudoeste 0 1009.8 0.8 78
2019-10-30 23:00:00 20.5 15 Oeste 28 Oeste 0 1009.7 1 70
2019-10-30 22:00:00 21.4 19 Oeste 36 Oeste 0 1009.3 1.2 64
2019-10-30 21:00:00 22.2 19 Oeste 29 Oeste 0 1009 1.3 57
2019-10-30 20:00:00 22.5 13 Oeste 23 Oeste 0 1008.7 1.3 55
2019-10-30 19:00:00 22.5 11 Oeste 15 Oeste 0 1008.1 0.8 53
2019-10-30 18:00:00 24.5 7 Oeste 14 Oeste 0 1007.7 0.2 46
2019-10-30 17:00:00 25.1 8 Oeste 28 Oeste 0 1007.4 -0.6 46
2019-10-30 16:00:00 26.2 8 Noroeste 18 Sudoeste 0 1007.3 -1.4 40
2019-10-30 15:00:00 26 4 Noroeste 13 Noroeste 0 1007.5 -1.8 39
2019-10-30 14:00:00 24.9 4 Noroeste 9 Nordeste 0 1008 -1.5 43
2019-10-30 13:00:00 23.3 2 Este 10 Sudeste 0 1008.7 -0.6 55
2019-10-30 12:00:00 21.7 0 Calma 10 Sur 0 1009.3 0.5 63
2019-10-30 11:00:00 19.3 2 Nordeste 7 Nordeste 0 1009.5 1.4 69
2019-10-30 10:00:00 16.1 0 Calma 7 Sudeste 0 1009.3 1.9 76
2019-10-30 09:00:00 13.3 4 Sudeste 8 Sudeste 0 1008.8 1.4 84
2019-10-30 08:00:00 11.3 0 Calma 7 Sudeste 0 1008.1 1.1 88
2019-10-30 07:00:00 12.2 4 Sur 8 Sur 0 1007.4 0.7 89
2019-10-30 06:00:00 12.6 0 Calma 5 Sudeste 0 1007.4 0.7 86
2019-10-30 05:00:00 13.1 2 Sur 6 Sudeste 0 1007 0 84
2019-10-30 04:00:00 13.5 0 Calma 6 Sur 0 1006.7 -0.2 86
2019-10-30 03:00:00 14.3 0 Calma 7 Sudeste 0 1006.7 0.2 81
2019-10-30 02:00:00 14.5 0 Calma 8 Sudoeste 0 1007 0.9 81
2019-10-30 01:00:00 15.6 4 Sudoeste 13 Sudoeste 0 1006.9 1 79
2019-10-30 00:00:00 16.1 4 Sudeste 9 Sudeste 0 1006.5 1 73
2019-10-29 23:00:00 16.8 0 Calma 7 Sudeste 0 1006.1 1.2 74
2019-10-29 22:00:00 17.8 0 Calma 14 Oeste 0 1005.9 1.6 69
2019-10-29 21:00:00 18.9 0 Calma 8 Oeste 0 1005.5 1.4 68
2019-10-29 20:00:00 20 3 Oeste 10 Oeste 0 1004.9 0.9 62
2019-10-29 19:00:00 21.6 6 Oeste 8 Oeste 0 1004.3 0.5 57
2019-10-29 18:00:00 23.3 3 Noroeste 10 Oeste 0 1004.1 0.3 52
2019-10-29 17:00:00 24.4 3 Norte 9 Noroeste 0 1004 -0.6 50
2019-10-29 16:00:00 24 4 Norte 9 Norte 0 1003.8 -1.4 51
2019-10-29 15:00:00 24.2 3 Noroeste 9 Oeste 0 1003.8 -1.8 51
2019-10-29 14:00:00 23.3 4 Oeste 13 Noroeste 0 1004.6 -1.1 58
2019-10-29 13:00:00 21.1 3 Nordeste 10 Sudeste 0 1005.2 -0.3 68
2019-10-29 12:00:00 18.6 3 Este 10 Norte 0 1005.6 0.6 82
2019-10-29 11:00:00 17.3 6 Norte 13 Norte 0 1005.7 1.5 89
2019-10-29 10:00:00 16.3 0 Calma 6 Noroeste 0 1005.5 1.6 89
2019-10-29 09:00:00 14.9 0 Calma 9 Sudoeste 0 1005 1.6 86
2019-10-29 08:00:00 14.3 4 Sur 6 Sur 0 1004.2 0.7 86
2019-10-29 07:00:00 14 0 Calma 4 Oeste 0 1003.9 0.3 86
2019-10-29 06:00:00 13.2 0 Calma 4 Sudeste 0 1003.4 -0.2 87
2019-10-29 05:00:00 12.4 0 Calma 6 Sur 0 1003.5 -0.2 89
2019-10-29 04:00:00 12.8 2 Sur 5 Sudeste 0 1003.6 -0.3 91
2019-10-29 03:00:00 13.1 0 Calma 4 Sudeste 0 1003.6 -0.4 89
2019-10-29 02:00:00 13.5 2 Sudeste 8 Sudeste 0 1003.7 -0.6 89
2019-10-29 01:00:00 14.6 5 Sudeste 14 Sudoeste 0 1003.9 0.2 86
2019-10-29 00:00:00 16.6 9 Sudoeste 13 Sudoeste 0 1004 0.7 84
2019-10-28 23:00:00 16.8 6 Oeste 13 Sudoeste 0 1004.3 0.8 82
2019-10-28 22:00:00 17.8 6 Oeste 12 Oeste 0 1003.7 0.4 73
2019-10-28 21:00:00 18.2 6 Oeste 13 Oeste 0 1003.3 0.4 69
2019-10-28 20:00:00 19 9 Oeste 15 Oeste 0 1003.5 0.6 67
2019-10-28 19:00:00 20.7 10 Oeste 15 Oeste 0 1003.3 0 61
2019-10-28 18:00:00 22.5 5 Oeste 20 Sudoeste 0 1002.9 -0.6 53
2019-10-28 17:00:00 23.9 7 Oeste 21 Oeste 0 1002.9 -1.3 49
2019-10-28 16:00:00 24 9 Oeste 19 Sudoeste 0 1003.3 -1.6 49
2019-10-28 15:00:00 23.7 13 Oeste 23 Sudoeste 0 1003.5 -2 48
2019-10-28 14:00:00 23.5 9 Oeste 22 Oeste 0 1004.2 -1.5 50
2019-10-28 13:00:00 23 3 Oeste 19 Oeste 0 1004.9 -0.7 53
2019-10-28 12:00:00 21.2 4 Norte 11 Sudoeste 0 1005.5 0.1 61
2019-10-28 11:00:00 20 4 Sudoeste 9 Sudoeste 0 1005.7 0.9 65
2019-10-28 10:00:00 16.8 4 Sudeste 8 Este 0 1005.6 0.9 65
2019-10-28 09:00:00 13.5 6 Sur 9 Sur 0 1005.4 1.1 72
2019-10-28 08:00:00 13.5 5 Sudoeste 8 Sudoeste 0 1004.8 0.5 76
2019-10-28 07:00:00 14.6 3 Sur 7 Norte 0 1004.7 0.7 76
2019-10-28 06:00:00 14.3 0 Calma 9 Noroeste 0 1004.3 -0.2 74
2019-10-28 05:00:00 14 4 Oeste 8 Sudeste 0 1004.3 -0.4 75
2019-10-28 04:00:00 13.4 2 Sur 7 Este 0 1004 -1.2 77
2019-10-28 03:00:00 13.5 0 Calma 9 Sudeste 0 1004.5 -1 79
2019-10-28 02:00:00 14.5 3 Sur 12 Sudoeste 0 1004.7 -0.8 80
2019-10-28 01:00:00 14.5 4 Sur 5 Sudoeste 0 1005.2 0 79
2019-10-28 00:00:00 15.5 3 Sudeste 9 Sudeste 0 1005.5 0.5 70
2019-10-27 23:00:00 17.5 4 Sudoeste 16 Sudoeste 0 1005.5 1.1 62
2019-10-27 22:00:00 19.2 12 Sudoeste 16 Sudoeste 0 1005.2 1.3 59
2019-10-27 21:00:00 19.3 6 Sudoeste 9 Sur 0 1005 1.6 48
2019-10-27 20:00:00 19.6 0 Calma 11 Noroeste 0 1004.4 0.9 48
2019-10-27 19:00:00 20.8 10 Noroeste 11 Noroeste 0 1003.9 0.1 44
2019-10-27 18:00:00 24.6 5 Oeste 16 Noroeste 0 1003.4 -0.5 35
2019-10-27 17:00:00 26.3 11 Noroeste 20 Noroeste 0 1003.5 -0.9 29
2019-10-27 16:00:00 26.6 6 Noroeste 16 Noroeste 0 1003.8 -1.3 28
2019-10-27 15:00:00 26.3 7 Noroeste 16 Noroeste 0 1003.9 -2.3 30
2019-10-27 14:00:00 26.1 4 Norte 13 Norte 0 1004.4 -2.1 30
2019-10-27 13:00:00 25.4 0 Calma 11 Sudoeste 0 1005.1 -1.3 31
2019-10-27 12:00:00 23.1 0 Calma 8 Sudeste 0 1006.2 0.1 38
2019-10-27 11:00:00 19.9 3 Sudeste 8 Sudeste 0 1006.5 1.4 45
2019-10-27 10:00:00 16.9 0 Calma 5 Nordeste 0 1006.4 1.8 53
2019-10-27 09:00:00 12.8 2 Nordeste 5 Norte 0 1006.1 1.5 69
2019-10-27 08:00:00 11.4 2 Sudeste 6 Sur 0 1005.1 0.4 68
2019-10-27 07:00:00 11 2 Sur 5 Sudoeste 0 1004.6 0 71
2019-10-27 06:00:00 11.2 3 Sudoeste 7 Sudoeste 0 1004.6 -0.2 69
2019-10-27 05:00:00 11.5 0 Calma 8 Sudoeste 0 1004.7 -0.2 68
2019-10-27 04:00:00 11.7 0 Calma 4 Sudoeste 0 1004.6 -0.3 69
2019-10-27 03:00:00 12.2 0 Calma 4 Noroeste 0 1004.8 -0.1 65
2019-10-27 02:00:00 13.3 0 Calma 5 Sudeste 0 1004.9 -0.1 62
2019-10-27 01:00:00 15.3 7 Sudeste 10 Sur 0 1004.9 0.3 52
2019-10-27 00:00:00 15.6 4 Sur 10 Sudeste 0 1005 0.9 51
2019-10-26 23:00:00 16.8 4 Sur 10 Sur 0 1005 1.4 47
2019-10-26 22:00:00 18.7 4 Sur 7 Sudoeste 0 1004.6 1.4 47
2019-10-26 21:00:00 20.4 3 Noroeste 7 Noroeste 0 1004.1 0.9 38
2019-10-26 20:00:00 22.2 6 Noroeste 9 Noroeste 0 1003.6 0.2 36
2019-10-26 19:00:00 25.6 6 Noroeste 12 Norte 0 1003.2 -0.6 30
2019-10-26 18:00:00 28.1 6 Norte 12 Oeste 0 1003.2 -1.2 22
2019-10-26 17:00:00 28.7 5 Noroeste 10 Noroeste 0 1003.4 -1.8 22
2019-10-26 16:00:00 28.5 4 Noroeste 12 Oeste 0 1003.8 -2.3 20
2019-10-26 15:00:00 27 3 Noroeste 11 Este 0 1004.4 -1.8 24
2019-10-26 14:00:00 25.5 5 Este 16 Este 0 1005.2 -1.3 30
2019-10-26 13:00:00 23.1 4 Este 11 Este 0 1006.1 0 37
2019-10-26 12:00:00 20 8 Este 12 Este 0 1006.2 0.7 48
2019-10-26 11:00:00 17 0 Calma 8 Este 0 1006.5 1.3 58
2019-10-26 10:00:00 13.5 0 Calma 5 Sudeste 0 1006.1 1 68
2019-10-26 09:00:00 10 3 Sur 7 Sur 0 1005.5 0.4 79
2019-10-26 08:00:00 10.4 3 Sudeste 6 Sur 0 1005.2 0.1 77
2019-10-26 07:00:00 10.7 0 Calma 5 Sudoeste 0 1005.1 -0.4 75
2019-10-26 06:00:00 11.2 0 Calma 4 Sur 0 1005.1 -0.7 75
2019-10-26 05:00:00 11.4 2 Sur 5 Sur 0 1005.1 -0.8 71
2019-10-26 04:00:00 12 4 Sur 6 Sudeste 0 1005.5 -0.6 67
2019-10-26 03:00:00 12.3 0 Calma 10 Sudeste 0 1005.8 -0.5 69
2019-10-26 02:00:00 12.2 9 Sudeste 11 Sudeste 0 1005.9 -0.1 70
2019-10-26 01:00:00 13.5 4 Sur 12 Sudeste 0 1006.1 0.3 62
2019-10-26 00:00:00 15.5 6 Sur 9 Sur 0 1006.3 0.8 57
2019-10-25 23:00:00 16.9 8 Sudoeste 12 Sudoeste 0 1006 1.2 52
2019-10-25 22:00:00 18.9 6 Sur 10 Sur 0 1005.8 1.2 45
2019-10-25 21:00:00 21 8 Sur 13 Sur 0 1005.5 0.8 40
2019-10-25 20:00:00 21.8 0 Calma 8 Sudeste 0 1004.8 -0.2 42
2019-10-25 19:00:00 25 6 Sudeste 15 Este 0 1004.6 -0.7 34
2019-10-25 18:00:00 27.1 10 Este 20 Este 0 1004.7 -1.2 26
2019-10-25 17:00:00 27.4 10 Sudeste 20 Sudeste 0 1005 -1.6 28
2019-10-25 16:00:00 26.9 0 Calma 17 Este 0 1005.3 -2.5 30
2019-10-25 15:00:00 26.4 0 Calma 23 Este 0 1005.9 -2.3 30
2019-10-25 14:00:00 24.1 13 Este 23 Este 0 1006.6 -2.2 43
2019-10-25 13:00:00 20.9 12 Este 19 Este 0 1007.8 -0.5 49
2019-10-25 12:00:00 18.5 12 Este 18 Este 0 1008.2 0.4 56
2019-10-25 11:00:00 15.4 6 Nordeste 12 Nordeste 0 1008.8 1 65
2019-10-25 10:00:00 11 3 Sudeste 6 Sudeste 0 1008.3 0.5 82
2019-10-25 09:00:00 9.5 0 Calma 9 Nordeste 0 1007.8 0 85
2019-10-25 08:00:00 9.7 4 Norte 9 Norte 0 1007.8 0.1 85
2019-10-25 07:00:00 8.8 0 Calma 4 Nordeste 0 1007.8 -0.4 89
2019-10-25 06:00:00 8.8 0 Calma 3 Noroeste 0 1007.8 -0.9 89
2019-10-25 05:00:00 8.5 3 Norte 6 Norte 0 1007.7 -1.5 90
2019-10-25 04:00:00 9.1 2 Sur 5 Sur 0 1008.2 -0.9 89
2019-10-25 03:00:00 9.9 0 Calma 3 Noroeste 0 1008.7 -0.5 88
2019-10-25 02:00:00 10.7 0 Calma 3 Este 0 1009.2 0.1 85
2019-10-25 01:00:00 11.4 0 Calma 4 Sudeste 0 1009.1 0.3 82
2019-10-25 00:00:00 11.8 4 Sudeste 12 Sudeste 0 1009.2 1.1 82
2019-10-24 23:00:00 12.6 4 Sudeste 7 Sudeste 0 1009.1 1.6 79
2019-10-24 22:00:00 13.5 0 Calma 4 Noroeste 0 1008.8 1.8 76
2019-10-24 21:00:00 15.2 0 Calma 7 Sudoeste 0 1008.1 1.5 74
2019-10-24 20:00:00 16.9 6 Sudoeste 8 Sudoeste 0 1007.5 0.8 66
2019-10-24 19:00:00 18.9 5 Sur 8 Sur 0 1007 0.2 54
2019-10-24 18:00:00 19.9 3 Sudoeste 10 Noroeste 0 1006.6 -0.6 49
2019-10-24 17:00:00 19.5 3 Noroeste 21 Oeste 0 1006.7 -0.9 51
2019-10-24 16:00:00 19 4 Norte 12 Noroeste 0 1006.8 -1.2 50
2019-10-24 15:00:00 18.4 4 Noroeste 12 Noroeste 0 1007.2 -0.6 58
2019-10-24 14:00:00 17.8 5 Sudoeste 10 Sudoeste 0 1007.6 0.1 57
2019-10-24 13:00:00 16.1 4 Oeste 13 Oeste 0 1008 1.2 64
2019-10-24 12:00:00 15.7 6 Oeste 14 Sudoeste 0 1007.8 2.2 69
2019-10-24 11:00:00 14.2 10 Sudoeste 15 Sudoeste 0 1007.5 2.6 77
2019-10-24 10:00:00 12 10 Oeste 21 Oeste 0 1006.8 2.9 85
2019-10-24 09:00:00 9.8 16 Oeste 23 Oeste 0 1005.6 2.7 89
2019-10-24 08:00:00 10.3 10 Oeste 21 Oeste 0 1004.9 2.4 88
2019-10-24 07:00:00 10.7 9 Oeste 22 Oeste 0 1003.9 1.6 86
2019-10-24 06:00:00 11 15 Oeste 22 Oeste 0 1002.9 0.8 86
2019-10-24 05:00:00 11.5 17 Oeste 25 Oeste 0 1002.5 0.5 86
2019-10-24 04:00:00 12.5 15 Oeste 23 Oeste 0 1002.3 0.7 81
2019-10-24 03:00:00 13.1 13 Oeste 18 Oeste 0 1002.1 0.8 83
2019-10-24 02:00:00 13.3 11 Oeste 21 Oeste 0 1002 1.4 85
2019-10-24 01:00:00 13.5 14 Oeste 23 Oeste 0 1001.6 2.1 79
2019-10-24 00:00:00 13.5 11 Oeste 21 Sudoeste 0 1001.3 2 81
2019-10-23 23:00:00 13.5 11 Oeste 21 Oeste 0 1000.6 2.3 81
2019-10-23 22:00:00 13.5 9 Oeste 18 Oeste 0 999.5 1.6 83
2019-10-23 21:00:00 13.7 5 Oeste 12 Sudoeste 0 999.3 2.2 87
2019-10-23 20:00:00 14 5 Oeste 15 Oeste 0.2 998.3 1.6 84
2019-10-23 19:00:00 14.5 10 Oeste 20 Oeste 0 997.9 1.8 82
2019-10-23 18:00:00 14.6 12 Oeste 22 Noroeste 2.5 997.1 0.7 82
2019-10-23 17:00:00 14.9 18 Noroeste 36 Oeste 1.5 996.7 0.1 85
2019-10-23 16:00:00 16.9 17 Oeste 32 Oeste 0 996.1 -1.6 66
2019-10-23 15:00:00 15.9 19 Oeste 38 Oeste 0 996.4 -1.4 69
2019-10-23 14:00:00 15.5 20 Sudoeste 28 Sudoeste 0 996.6 -1.2 71
2019-10-23 13:00:00 13 14 Sudoeste 32 Sudoeste 0 997.7 0.6 77
2019-10-23 12:00:00 11.7 24 Sudoeste 31 Sudoeste 0 997.8 1.5 83
2019-10-23 11:00:00 12 14 Oeste 31 Oeste 0 997.8 1.5 80
2019-10-23 10:00:00 11.6 16 Sudoeste 26 Sudoeste 0 997.1 0.8 87
2019-10-23 09:00:00 10.8 17 Sudoeste 29 Sudoeste 0 996.3 0.7 86
2019-10-23 08:00:00 10.5 15 Oeste 27 Oeste 0 996.3 0.7 88
2019-10-23 07:00:00 11 14 Oeste 28 Sudoeste 0 996.3 0.4 86
2019-10-23 06:00:00 11.1 17 Oeste 27 Oeste 0 995.6 -0.3 85
2019-10-23 05:00:00 10.9 13 Sudoeste 24 Oeste 0 995.6 -0.6 84
2019-10-23 04:00:00 10 0 Calma 18 Sudoeste 0 995.9 -0.7 89
2019-10-23 03:00:00 11.1 11 Sudoeste 20 Sudoeste 0 995.9 -0.6 87
2019-10-23 02:00:00 11.3 0 Calma 5 Oeste 0 996.2 -0.3 88
2019-10-23 01:00:00 11.9 4 Noroeste 20 Oeste 0 996.6 -0.3 90
2019-10-23 00:00:00 11.8 9 Noroeste 15 Oeste 0 996.5 -0.2 91
2019-10-22 23:00:00 11.6 5 Sudeste 17 Sudoeste 1 996.5 1 91
2019-10-22 22:00:00 11.9 9 Oeste 37 Noroeste 5.3 996.9 1.5 86
2019-10-22 21:00:00 13.5 13 Noroeste 30 Oeste 0.4 996.7 2 81
2019-10-22 20:00:00 14.1 19 Oeste 39 Oeste 0.2 995.5 1.1 76
2019-10-22 19:00:00 15.9 20 Oeste 37 Sudoeste 0 995.4 0.7 61
2019-10-22 18:00:00 18.3 7 Norte 31 Noroeste 0 994.7 -0.4 44
2019-10-22 17:00:00 20.6 9 Noroeste 18 Oeste 0 994.4 -1.8 38
2019-10-22 16:00:00 20.5 8 Noroeste 18 Noroeste 0 994.7 -2.7 34
2019-10-22 15:00:00 19.8 3 Noroeste 22 Noroeste 0 995.1 -2.7 42
2019-10-22 14:00:00 18.8 3 Noroeste 14 Norte 0 996.2 -2.1 50
2019-10-22 13:00:00 17.9 0 Calma 8 Norte 0 997.4 -0.6 50
2019-10-22 12:00:00 16.3 3 Noroeste 9 Norte 0 997.8 0 55
2019-10-22 11:00:00 13.5 2 Noroeste 9 Este 0 998.3 0.2 70
2019-10-22 10:00:00 12.1 0 Calma -- -- 0 998 0 78
2019-10-22 09:00:00 9.8 0 Calma 4 Este 0 997.8 -0.5 87
2019-10-22 08:00:00 10.2 2 Nordeste 8 Sudoeste 0 998.1 -0.6 85
2019-10-22 07:00:00 10.3 7 Sudoeste 10 Sudeste 0 998 -1.3 84
2019-10-22 06:00:00 10.3 7 Sudeste 11 Sur 0 998.3 -2 86
2019-10-22 05:00:00 11.7 3 Noroeste 12 Oeste 0 998.7 -1.5 79
2019-10-22 04:00:00 11.7 0 Calma 6 Este 0 999.3 -1.3 83
2019-10-22 03:00:00 10.7 0 Calma 7 Sudeste 0 1000.3 -0.9 84
2019-10-22 02:00:00 10.8 3 Noroeste 7 Este 0 1000.2 -1 81
2019-10-22 01:00:00 11 3 Sudoeste 14 Sudoeste 0 1000.6 -0.3 78
2019-10-22 00:00:00 12.2 5 Sudoeste 9 Nordeste 0 1001.2 0.1 73
2019-10-21 23:00:00 12.5 2 Sur 15 Sudeste 0 1001.2 0.5 69
2019-10-21 22:00:00 14.7 6 Noroeste 9 Noroeste 0 1000.9 0.5 58
2019-10-21 21:00:00 15.6 3 Oeste 9 Noroeste 0 1001.1 0.7 56
2019-10-21 20:00:00 16.9 5 Noroeste 7 Noroeste 0 1000.7 0 55
2019-10-21 19:00:00 19.4 4 Noroeste 12 Sur 0 1000.4 -0.8 43
2019-10-21 18:00:00 20.7 4 Oeste 15 Oeste 0 1000.4 -1.4 38
2019-10-21 17:00:00 20.5 8 Oeste 16 Oeste 0 1000.7 -1.8 40
2019-10-21 16:00:00 20.6 6 Sudoeste 13 Sudoeste 0 1001.2 -2.1 39
2019-10-21 15:00:00 19.7 4 Este 13 Sur 0 1001.8 -1.7 44
2019-10-21 14:00:00 18.9 3 Oeste 8 Nordeste 0 1002.5 -0.9 50
2019-10-21 13:00:00 17.3 3 Sur 9 Este 0 1003.3 0.1 60
2019-10-21 12:00:00 14.8 4 Este 7 Este 0 1003.5 0.8 73
2019-10-21 11:00:00 12.2 0 Calma 6 Sudeste 0 1003.4 1.1 82
2019-10-21 10:00:00 9.8 0 Calma 3 Sudeste 0 1003.2 1 90
2019-10-21 09:00:00 7.9 0 Calma 3 Sur 0 1002.7 0.7 96
2019-10-21 08:00:00 7.8 0 Calma 4 Sur 0 1002.3 0.3 95
2019-10-21 07:00:00 8.3 0 Calma 3 Sur 0 1002.2 0.3 94
2019-10-21 06:00:00 8.8 2 Sur 5 Sur 0 1002 0.1 95
2019-10-21 05:00:00 8.8 0 Calma 7 Sudeste 0 1002 0 95
2019-10-21 04:00:00 9.2 0 Calma 7 Este 0 1001.9 0.1 92
2019-10-21 03:00:00 9.9 3 Sudeste 5 Oeste 0 1001.9 -0.1 90
2019-10-21 02:00:00 10.4 0 Calma 10 Sudoeste 0 1002 0.6 90
2019-10-21 01:00:00 11.4 0 Calma 15 Sur 0 1001.8 0.7 87
2019-10-21 00:00:00 12.9 9 Sudoeste 24 Sudoeste 0 1002 1 80
2019-10-20 23:00:00 13.5 17 Sudoeste 23 Sudoeste 0 1001.4 1.2 78
2019-10-20 22:00:00 13.8 5 Oeste 16 Oeste 0 1001.1 1.6 75
2019-10-20 21:00:00 15.6 12 Oeste 21 Oeste 0 1001 1.5 65
2019-10-20 20:00:00 15.7 11 Sudoeste 22 Sudoeste 0 1000.2 1 64
2019-10-20 19:00:00 17.4 14 Sudoeste 27 Sudoeste 0 999.5 0.3 55
2019-10-20 18:00:00 19.2 13 Oeste 29 Oeste 0 999.5 0.2 49
2019-10-20 17:00:00 19.5 18 Sudoeste 31 Sudoeste 0 999.2 -0.3 51
2019-10-20 16:00:00 19 15 Oeste 26 Oeste 0 999.2 -0.3 50
2019-10-20 15:00:00 18 14 Oeste 30 Oeste 0 999.3 -0.2 59
2019-10-20 14:00:00 18 14 Sudoeste 27 Oeste 0 999.5 0.5 59
2019-10-20 13:00:00 17.1 13 Oeste 31 Oeste 0 999.5 1 69
2019-10-20 12:00:00 15.9 15 Oeste 29 Oeste 0 999.5 2 75
2019-10-20 11:00:00 14.8 17 Oeste 30 Oeste 0 999 1.9 84
2019-10-20 10:00:00 14.2 16 Sudoeste 24 Sudoeste 0 998.5 2 89
2019-10-20 09:00:00 12.6 12 Sudoeste 21 Oeste 0 997.5 1.3 92
2019-10-20 08:00:00 12.9 9 Oeste 22 Oeste 0 997.1 1.5 93
2019-10-20 07:00:00 13.5 13 Oeste 23 Oeste 0 996.5 -0.1 93
2019-10-20 06:00:00 14.3 10 Oeste 24 Sudoeste 0 996.2 0.2 92
2019-10-20 05:00:00 14.9 10 Sudoeste 30 Oeste 0 995.6 -1 91
2019-10-20 04:00:00 15.2 20 Sudoeste 32 Sudoeste 0.1 996.6 1.6 92
2019-10-20 03:00:00 15.5 18 Sudoeste 34 Sudoeste 1.3 996 1.7 92
2019-10-20 02:00:00 15.8 26 Sudoeste 36 Sudoeste 0.3 996.6 2.6 94
2019-10-20 01:00:00 16 15 Sudoeste 24 Sudoeste 0 995 1.1 92
2019-10-20 00:00:00 16.1 14 Sudoeste 40 Oeste 5.7 994.3 0.9 93
2019-10-19 23:00:00 18.5 24 Sudoeste 62 Sudoeste 1.4 994 0.3 92
2019-10-19 22:00:00 19.3 35 Sudoeste 51 Sudoeste 1.4 993.9 0.2 88
2019-10-19 21:00:00 20.8 29 Sudoeste 49 Sudoeste 0.1 993.4 -0.8 74
2019-10-19 20:00:00 20.4 26 Sudoeste 45 Sudoeste 0.3 993.7 -1 76
2019-10-19 19:00:00 21.1 26 Sudoeste 42 Sudoeste 0.5 993.7 -1.7 76
2019-10-19 18:00:00 23.3 29 Sudoeste 43 Sudoeste 0 994.2 -2.1 56
2019-10-19 17:00:00 24 25 Sudoeste 45 Sudoeste 0 994.7 -2.6 51
2019-10-19 16:00:00 25 30 Sudoeste 47 Sudoeste 0 995.4 -2.8 48
2019-10-19 15:00:00 24.3 22 Sudoeste 35 Sudoeste 0 996.3 -2.6 49
2019-10-19 14:00:00 24 19 Sudoeste 31 Sudoeste 0 997.3 -- 49
2019-10-19 13:00:00 21.8 16 Sudoeste 28 Oeste 0 998.2 -1 58
2019-10-19 12:00:00 19.9 6 Sudoeste 10 Sur 0 998.9 -0.1 71
2019-10-19 11:00:00 -- 0 Calma 7 Sudeste 0 -- -- --
2019-10-19 10:00:00 17.8 0 Calma 5 Sur 0 999.2 -0.2 83
2019-10-19 09:00:00 17 0 Calma 6 Sudeste 0 999 -0.4 84
2019-10-19 08:00:00 16.9 3 Sudeste 7 Sudeste 0 999.1 -0.4 83
2019-10-19 07:00:00 16.5 2 Noroeste 4 Noroeste 0 999.4 -0.7 86
2019-10-19 06:00:00 16.4 3 Sudeste 10 Oeste 0 999.4 -1.2 84
2019-10-19 05:00:00 16.2 4 Oeste 9 Sudeste 0 999.5 -1.7 86
2019-10-19 04:00:00 17.3 4 Sudeste 8 Sudoeste 0 1000.1 -1.5 83
2019-10-19 03:00:00 18 4 Oeste 15 Sudoeste 0 1000.6 -1.4 85
2019-10-19 02:00:00 17.9 5 Sudoeste 18 Sudoeste 0 1001.2 -0.6 88
2019-10-19 01:00:00 18.4 13 Sudoeste 23 Sudoeste 0 1001.6 0 85
2019-10-19 00:00:00 19.2 17 Sudoeste 28 Oeste 0 1002 0.7 81
2019-10-18 23:00:00 20.2 11 Oeste 26 Oeste 0 1001.8 0.6 78
2019-10-18 22:00:00 20.9 12 Oeste 26 Oeste 0 1001.6 -- 72
2019-10-18 21:00:00 22.1 11 Oeste 23 Oeste 0 1001.3 -0.2 65
2019-10-18 20:00:00 23.7 14 Oeste 22 Oeste 0 1001.2 -0.9 59
2019-10-18 19:00:00 -- -- -- -- -- -- -- -- --
2019-10-18 18:00:00 25.2 11 Oeste 25 Oeste 0 1001.5 -1.7 51
2019-10-18 17:00:00 25.2 15 Oeste 25 Oeste 0 1002.1 -2.3 52
2019-10-18 16:00:00 25.6 9 Oeste 22 Noroeste 0 1002.5 -2.8 50
2019-10-18 15:00:00 25 9 Oeste 22 Oeste 0 1003.2 -2.4 52
2019-10-18 14:00:00 24.1 5 Oeste 15 Oeste 0 1004.4 -1.5 55
2019-10-18 13:00:00 22 2 Sudeste 9 Este 0 1005.3 -0.1 59
2019-10-18 12:00:00 20.3 3 Este 9 Sudeste 0 1005.6 0.8 63
2019-10-18 11:00:00 17.3 0 Calma 5 Sudeste 0 1005.9 1.3 60
2019-10-18 10:00:00 14 3 Sudeste 6 Sudeste 0 1005.4 0.5 68
2019-10-18 09:00:00 12.1 0 Calma 5 Sur 0 1004.8 0.2 72
2019-10-18 08:00:00 12.6 0 Calma 7 Sudeste 0 1004.6 0 73
2019-10-18 07:00:00 13.1 3 Sur 6 Sur 0 1004.9 -0.1 69
2019-10-18 06:00:00 13.4 3 Sur 8 Sudeste 0 1004.6 -0.6 69
2019-10-18 05:00:00 13.7 6 Sudeste 8 Sudeste 0 1004.6 -0.7 70
2019-10-18 04:00:00 14.5 0 Calma 5 Sudeste 0 1005 -0.7 72
2019-10-18 03:00:00 15.5 2 Este 6 Sudeste 0 1005.2 -0.5 72
2019-10-18 02:00:00 16.7 3 Sudeste 13 Sudoeste 0 1005.3 0.2 70
2019-10-18 01:00:00 17.8 9 Sudoeste 15 Sudoeste 0 1005.7 0.8 72
2019-10-18 00:00:00 18.7 10 Sudoeste 21 Sudoeste 0 1005.7 1.2 64
2019-10-17 23:00:00 19.7 17 Sudoeste 26 Oeste 0 1005.1 1.3 61
2019-10-17 22:00:00 20.7 16 Oeste 32 Oeste 0 1004.9 1.3 53
2019-10-17 21:00:00 21.5 13 Oeste 19 Oeste 0 1004.5 0.8 38
2019-10-17 20:00:00 22.8 5 Oeste 14 Sudoeste 0 1003.8 -0.2 33
2019-10-17 19:00:00 25 6 Oeste 14 Oeste 0 1003.6 -0.8 28
2019-10-17 18:00:00 26 7 Oeste 15 Oeste 0 1003.7 -1.6 25
2019-10-17 17:00:00 26 5 Oeste 17 Oeste 0 1004 -2.3 23
2019-10-17 16:00:00 25.3 3 Oeste 13 Norte 0 1004.4 -2.4 28
2019-10-17 15:00:00 24.8 4 Sudoeste 13 Sudoeste 0 1005.3 -1.9 30
2019-10-17 14:00:00 22.2 0 Calma 10 Sudeste 0 1006.3 -1 36
2019-10-17 13:00:00 19.7 3 Este 11 Sudeste 0 1006.8 -0.3 42
2019-10-17 12:00:00 17.3 5 Sudeste 12 Sudeste 0 1007.2 1.4 47
2019-10-17 11:00:00 13.4 4 Sudeste 8 Este 0 1007.3 1.7 53
2019-10-17 10:00:00 10 3 Este 5 Este 0 1007.1 2.2 60
2019-10-17 09:00:00 7.2 4 Sudeste 6 Sudeste 0 1005.8 0.8 59
2019-10-17 08:00:00 8.5 0 Calma 4 Sudeste 0 1005.6 1 60
2019-10-17 07:00:00 8.9 3 Sur 7 Sudeste 0 1004.9 -0.1 61
2019-10-17 06:00:00 9.2 0 Calma 8 Sudeste 0 1005 0 61
2019-10-17 05:00:00 9.6 5 Sur 8 Sudeste 0 1004.6 -0.3 58
2019-10-17 04:00:00 10.2 5 Sur 9 Sudeste 0 1005 -0.1 55
2019-10-17 03:00:00 10.5 4 Sudeste 7 Sudeste 0 1005 -0.2 51
2019-10-17 02:00:00 11.2 2 Sudeste 8 Sudeste 0 1004.9 0 51
2019-10-17 01:00:00 12.7 0 Calma 7 Sudeste 0 1005.1 0.7 43
2019-10-17 00:00:00 13.2 3 Sur 13 Sur 0 1005.2 1.1 40
2019-10-16 23:00:00 14.8 3 Sudeste 8 Sudeste 0 1004.9 1.2 37
2019-10-16 22:00:00 16.5 2 Sudeste 14 Oeste 0 1004.4 1.3 31
2019-10-16 21:00:00 18.5 11 Oeste 13 Oeste 0 1004.1 0.7 29
2019-10-16 20:00:00 20.3 8 Noroeste 12 Noroeste 0 1003.7 0 26
2019-10-16 19:00:00 23.2 7 Noroeste 13 Noroeste 0 1003.1 -1.2 23
2019-10-16 18:00:00 24.5 2 Norte 13 Este 0 1003.4 -1.8 22
2019-10-16 17:00:00 24.7 4 Sudeste 12 Sur 0 1003.7 -2.7 22
2019-10-16 16:00:00 24 5 Este 13 Sudeste 0 1004.3 -3 26
2019-10-16 15:00:00 22.8 4 Norte 13 Este 0 1005.2 -2.7 29
2019-10-16 14:00:00 21.9 2 Nordeste 12 Nordeste 0 1006.4 -1.4 31
2019-10-16 13:00:00 19.3 4 Nordeste 14 Este 0 1007.3 -0.2 39
2019-10-16 12:00:00 17 4 Sudeste 10 Sudeste 0 1007.9 0.9 46
2019-10-16 11:00:00 13.2 3 Este 7 Este 0 1007.8 1 58
2019-10-16 10:00:00 9.6 2 Sudeste 5 Sudeste 0 1007.5 0.9 71
2019-10-16 09:00:00 5.8 0 Calma 6 Sur 0 1007 0.5 79
2019-10-16 08:00:00 5.8 2 Sur 8 Sur 0 1006.8 0 79
2019-10-16 07:00:00 5.8 0 Calma -- -- 0 1006.6 -0.5 76
2019-10-16 06:00:00 7.1 0 Calma 5 Sur 0 1006.5 -0.9 81
2019-10-16 05:00:00 7.2 0 Calma 3 Sudeste 0 1006.8 -0.8 78
2019-10-16 04:00:00 8.2 2 Sur 7 Sur 0 1007.1 -0.5 69
2019-10-16 03:00:00 8.8 6 Sudeste 8 Sudeste 0 1007.4 -0.1 75
2019-10-16 02:00:00 9.5 0 Calma 3 Sur 0 1007.6 0.2 68
2019-10-16 01:00:00 10.4 0 Calma 6 Sur 0 1007.6 0.7 62
2019-10-16 00:00:00 11.6 2 Sur 5 Noroeste 0 1007.5 1 55
2019-10-15 23:00:00 12.7 0 Calma 4 Norte 0 1007.4 1.3 50
2019-10-15 22:00:00 14.6 0 Calma 9 Sudoeste 0 1006.9 1 44
2019-10-15 21:00:00 16.4 6 Sudoeste 9 Sudoeste 0 1006.5 0.4 42
2019-10-15 20:00:00 18.7 5 Sudoeste 7 Sudoeste 0 1006.1 -0.2 36
2019-10-15 19:00:00 20.8 0 Calma 10 Sudoeste 0 1005.9 -0.6 33
2019-10-15 18:00:00 21.4 0 Calma 17 Norte 0 1006.1 -1.3 31
2019-10-15 17:00:00 21.3 0 Calma 14 Nordeste 0 1006.3 -1.8 31
2019-10-15 16:00:00 20.6 0 Calma 13 Norte 0 1006.5 -2 35
2019-10-15 15:00:00 19 0 Calma 14 Noroeste 0 1007.4 -1.7 44
2019-10-15 14:00:00 18.6 5 Sudeste 16 Nordeste 0 1008.1 -0.7 49
2019-10-15 13:00:00 17.8 3 Este 14 Sudeste 0 1008.5 0.4 50
2019-10-15 12:00:00 15.6 3 Sudeste 10 Nordeste 0 1009.1 1.5 67
2019-10-15 11:00:00 13.5 4 Nordeste 10 Nordeste 0 1008.8 1.4 69
2019-10-15 10:00:00 11.2 0 Calma 4 Noroeste 0 1008.1 1.4 82
2019-10-15 09:00:00 8.4 0 Calma 4 Norte 0 1007.6 0.6 90
2019-10-15 08:00:00 8 0 Calma 10 Noroeste 0 1007.4 0.7 90
2019-10-15 07:00:00 9.1 8 Noroeste 12 Noroeste 0 1006.7 0.1 87
2019-10-15 06:00:00 9.5 8 Noroeste 11 Noroeste 0 1007 0.2 86
2019-10-15 05:00:00 11.4 0 Calma 8 Noroeste 0 1006.7 0.2 82
2019-10-15 04:00:00 11.9 4 Noroeste 16 Oeste 0 1006.6 0.6 85
2019-10-15 03:00:00 12.7 14 Oeste 17 Oeste 0 1006.8 1 82
2019-10-15 02:00:00 13.4 14 Oeste 17 Oeste 0 1006.5 1.2 78
2019-10-15 01:00:00 14.4 15 Oeste 18 Oeste 0 1006 1.2 77
2019-10-15 00:00:00 15.8 9 Oeste 13 Oeste 0 1005.8 1.8 84
2019-10-14 23:00:00 16 5 Oeste 14 Noroeste 0 1005.3 2.4 89
2019-10-14 22:00:00 16 12 Noroeste 40 Oeste 0.1 1004.8 2.3 88
2019-10-14 21:00:00 17.4 20 Oeste 40 Sudoeste 0.7 1004 2.1 84
2019-10-14 20:00:00 20 24 Sudoeste 40 Sudoeste 0 1002.9 1.4 57
2019-10-14 19:00:00 20.6 32 Sudoeste 45 Sudoeste 0 1002.5 1.1 49
2019-10-14 18:00:00 22.7 32 Sudoeste 48 Sudoeste 0 1001.9 0.1 45
2019-10-14 17:00:00 23.2 27 Sudoeste 46 Oeste 0 1001.5 -1.1 50
2019-10-14 16:00:00 23.7 23 Sudoeste 42 Sudoeste 0 1001.4 -- 52
2019-10-14 15:00:00 22.9 22 Sudoeste 37 Oeste 0 1001.8 -0.5 58
2019-10-14 14:00:00 21.2 15 Oeste 32 Sudoeste 0.1 1002.6 0.8 63
2019-10-14 13:00:00 -- 4 Oeste 30 Oeste 0.8 -- -- --
2019-10-14 12:00:00 20.5 0 Calma 34 Sudoeste 0.3 1002.3 2 77
2019-10-14 11:00:00 19.9 18 Sudoeste 28 Oeste 0 1001.8 2.3 83
2019-10-14 10:00:00 17.6 9 Sudoeste 28 Sudoeste 0 1001.7 2.3 86
2019-10-14 09:00:00 16.9 21 Oeste 57 Sudoeste 0.6 1000.3 1.3 81
2019-10-14 08:00:00 19.5 15 Sudoeste 35 Sudoeste 0 999.5 1.1 77
2019-10-14 07:00:00 20.1 27 Sudoeste 53 Oeste 0 999.4 1.5 78
2019-10-14 06:00:00 19.3 17 Oeste 37 Oeste 0 999 1 83
2019-10-14 05:00:00 19.5 17 Oeste 34 Oeste 0 998.4 0.2 71
2019-10-14 04:00:00 19.8 12 Oeste 23 Sudoeste 0 997.9 0.3 68
2019-10-14 03:00:00 20.8 9 Sudoeste 25 Sudoeste 0 998 0.8 61
2019-10-14 02:00:00 22.1 15 Sudoeste 23 Sudoeste 0 998.2 1.3 52
2019-10-14 01:00:00 23 17 Sudoeste 24 Sudoeste 0 997.6 0.3 45
2019-10-14 00:00:00 25.4 15 Sur 38 Sur 0 997.2 -0.5 38